Time;durP1;ratioP1;P1;durP2;ratioP2;P2;SDS_P1;SDS_P2;PMS_P1;PMS_P2;Temp;Humidity;BMP_temperature;BMP_pressure;BME280_temperature;BME280_humidity;BME280_pressure;Samples;Min_cycle;Max_cycle;Signal;HPM_P1;HPM_P2
2022/07/09 00:02:24;;;;;;;5.17;3.10;;;12.80;99.90;12.20;100763;;;;584297;243;24023;-79
2022/07/09 00:04:52;;;;;;;3.23;2.60;;;12.80;99.90;12.20;100761;;;;583891;243;24073;-80
2022/07/09 00:07:20;;;;;;;3.77;2.70;;;12.80;99.90;12.10;100759;;;;583883;243;24113;-80
2022/07/09 00:09:51;;;;;;;3.53;2.70;;;12.80;99.90;12.10;100758;;;;583921;243;24021;-80
2022/07/09 00:12:16;;;;;;;3.83;2.50;;;12.80;99.90;12.20;100755;;;;583555;243;24025;-79
2022/07/09 00:14:44;;;;;;;3.87;2.47;;;12.80;99.90;12.10;100752;;;;583977;243;24037;-79
2022/07/09 00:17:13;;;;;;;5.53;2.73;;;12.80;99.90;12.10;100751;;;;583903;243;24026;-80
2022/07/09 00:19:45;;;;;;;5.23;2.70;;;12.70;99.90;12.10;100751;;;;583761;243;24117;-80
2022/07/09 00:22:10;;;;;;;7.10;2.53;;;12.70;99.90;12.10;100740;;;;583471;243;27300;-82
2022/07/09 00:24:38;;;;;;;7.13;2.80;;;12.70;99.90;12.10;100742;;;;583762;243;24014;-79
2022/07/09 00:27:06;;;;;;;4.57;2.77;;;12.70;99.90;12.10;100746;;;;583949;243;24040;-80
2022/07/09 00:29:34;;;;;;;6.03;3.30;;;12.70;99.90;12.00;100740;;;;583833;243;24005;-79
2022/07/09 00:32:05;;;;;;;4.13;2.70;;;12.70;99.90;12.00;100741;;;;584021;243;24048;-79
2022/07/09 00:34:34;;;;;;;5.67;2.67;;;12.70;99.90;12.00;100735;;;;583600;243;25108;-80
2022/07/09 00:36:58;;;;;;;2.60;2.40;;;12.70;99.90;12.00;100733;;;;584462;242;24027;-79
2022/07/09 00:39:29;;;;;;;3.70;3.40;;;12.70;99.90;12.00;100736;;;;584929;242;24017;-81
2022/07/09 00:42:10;;;;;;;3.30;2.73;;;12.60;99.90;12.00;100739;;;;584469;242;24136;-79
2022/07/09 00:44:35;;;;;;;3.70;2.60;;;12.60;99.90;12.00;100736;;;;584603;242;24047;-79
2022/07/09 00:47:07;;;;;;;3.57;2.50;;;12.60;99.90;12.00;100732;;;;584385;243;24081;-80
2022/07/09 00:49:31;;;;;;;7.00;2.97;;;12.60;99.90;12.00;100737;;;;584254;243;24092;-80
2022/07/09 00:51:59;;;;;;;4.63;2.93;;;12.60;99.90;12.00;100742;;;;584338;243;24070;-79
2022/07/09 00:54:27;;;;;;;4.87;3.10;;;12.60;99.90;12.00;100732;;;;584769;243;24011;-81
2022/07/09 00:56:56;;;;;;;2.87;2.67;;;12.60;99.90;12.00;100727;;;;584193;242;25060;-80
2022/07/09 00:59:25;;;;;;;3.03;2.73;;;12.60;99.90;12.00;100730;;;;584212;243;24017;-79
2022/07/09 01:01:53;;;;;;;4.43;2.93;;;12.60;99.90;12.00;100732;;;;584388;243;24026;-80
2022/07/09 01:04:21;;;;;;;4.20;2.60;;;12.70;99.90;12.00;100721;;;;584238;243;24054;-80
2022/07/09 01:06:49;;;;;;;6.60;3.17;;;12.70;99.90;12.10;100723;;;;584580;243;24071;-80
2022/07/09 01:09:16;;;;;;;6.13;2.80;;;12.70;99.90;12.00;100725;;;;584591;243;24049;-79
2022/07/09 01:11:44;;;;;;;4.20;2.60;;;12.70;99.90;12.00;100721;;;;584475;243;24059;-80
2022/07/09 01:14:16;;;;;;;6.60;2.77;;;12.70;99.90;12.10;100716;;;;584256;243;24046;-82
2022/07/09 01:16:44;;;;;;;3.13;2.83;;;12.70;99.90;12.10;100715;;;;584044;243;24042;-81
2022/07/09 01:19:08;;;;;;;3.77;3.17;;;12.70;99.90;12.10;100710;;;;583820;243;24090;-82
2022/07/09 01:21:36;;;;;;;5.63;3.37;;;12.70;99.90;12.10;100709;;;;584255;243;24063;-81
2022/07/09 01:24:05;;;;;;;8.87;3.00;;;12.70;99.90;12.10;100710;;;;584240;243;25048;-80
2022/07/09 01:26:35;;;;;;;8.90;2.90;;;12.70;99.90;12.10;100695;;;;593410;242;24009;-79
2022/07/09 01:29:02;;;;;;;12.07;2.93;;;12.70;99.90;12.10;100697;;;;584117;243;25082;-80
2022/07/09 01:31:30;;;;;;;9.50;2.63;;;12.70;99.90;12.10;100700;;;;584186;243;25075;-80
2022/07/09 01:33:58;;;;;;;5.77;3.20;;;12.70;99.90;12.10;100687;;;;584284;243;24023;-80
2022/07/09 01:36:29;;;;;;;6.07;3.40;;;12.80;99.90;12.20;100691;;;;584242;243;24023;-81
2022/07/09 01:38:54;;;;;;;7.67;2.97;;;12.80;99.90;12.20;100688;;;;583899;243;24061;-80
2022/07/09 01:41:22;;;;;;;2.60;2.40;;;12.80;99.90;12.20;100691;;;;583753;243;24046;-82
2022/07/09 01:43:50;;;;;;;4.80;3.17;;;12.80;99.90;12.30;100681;;;;583902;243;24021;-80
2022/07/09 01:46:18;;;;;;;6.47;2.57;;;12.90;99.90;12.30;100683;;;;583797;243;24010;-81
2022/07/09 01:48:47;;;;;;;5.43;2.63;;;12.90;99.90;12.30;100681;;;;585163;242;24009;-81
2022/07/09 01:51:15;;;;;;;3.80;2.70;;;12.90;99.90;12.30;100684;;;;585001;242;24007;-81
2022/07/09 01:53:43;;;;;;;2.70;2.50;;;12.90;99.90;12.30;100677;;;;584881;242;24005;-80
2022/07/09 01:56:14;;;;;;;2.77;2.57;;;12.90;99.90;12.40;100675;;;;584742;242;24125;-81
2022/07/09 01:58:39;;;;;;;2.97;2.77;;;13.00;99.90;12.40;100676;;;;593172;240;24005;-81
2022/07/09 02:01:07;;;;;;;3.33;2.67;;;13.00;99.90;12.40;100670;;;;584466;243;24021;-82
2022/07/09 02:03:34;;;;;;;3.43;3.03;;;13.00;99.90;12.40;100664;;;;584220;243;24074;-78
2022/07/09 02:06:02;;;;;;;8.17;3.30;;;13.00;99.90;12.50;100668;;;;584724;243;24036;-79
2022/07/09 02:08:31;;;;;;;3.73;2.60;;;13.10;99.90;12.50;100660;;;;584515;243;23996;-81
2022/07/09 02:10:59;;;;;;;4.27;2.80;;;13.00;99.90;12.50;100660;;;;584542;243;24013;-80
2022/07/09 02:13:27;;;;;;;5.30;2.70;;;13.10;99.90;12.50;100655;;;;584522;243;23987;-79
2022/07/09 02:15:55;;;;;;;7.17;2.90;;;13.10;99.90;12.60;100649;;;;584048;243;24023;-79
2022/07/09 02:18:23;;;;;;;2.83;2.17;;;13.20;99.90;12.60;100650;;;;584228;243;24041;-78
2022/07/09 02:20:51;;;;;;;4.90;2.90;;;13.20;99.90;12.60;100654;;;;584133;243;24019;-79
2022/07/09 02:23:20;;;;;;;3.07;2.53;;;13.30;99.90;12.70;100644;;;;584238;243;24048;-80
2022/07/09 02:25:48;;;;;;;3.83;2.73;;;13.30;99.90;12.80;100641;;;;587268;241;24118;-79
2022/07/09 02:28:16;;;;;;;3.30;3.00;;;13.40;99.90;12.80;100643;;;;587249;241;24053;-79
2022/07/09 02:30:44;;;;;;;4.97;2.93;;;13.40;99.90;12.80;100641;;;;586936;241;24021;-79
2022/07/09 02:33:12;;;;;;;3.40;3.10;;;13.40;99.90;12.90;100644;;;;587503;241;24123;-78
2022/07/09 02:35:40;;;;;;;2.93;2.67;;;13.50;99.90;12.90;100635;;;;587597;241;24051;-79
2022/07/09 02:38:08;;;;;;;5.60;2.77;;;13.50;99.90;12.90;100637;;;;596778;239;24024;-77
2022/07/09 02:40:37;;;;;;;3.27;2.97;;;13.50;99.90;12.90;100638;;;;597154;239;24063;-79
2022/07/09 02:43:05;;;;;;;3.23;2.57;;;13.50;99.90;12.90;100635;;;;596664;240;24046;-80
2022/07/09 02:45:33;;;;;;;5.60;3.00;;;13.50;99.90;12.90;100633;;;;596663;240;24069;-79
2022/07/09 02:48:01;;;;;;;6.23;2.70;;;13.50;99.90;12.80;100631;;;;596784;239;24006;-78
2022/07/09 02:50:29;;;;;;;3.20;2.80;;;13.40;99.90;12.80;100628;;;;596598;239;24088;-81
2022/07/09 02:52:57;;;;;;;2.77;2.57;;;13.40;99.90;12.80;100626;;;;596650;239;24009;-80
2022/07/09 02:55:26;;;;;;;7.97;2.57;;;13.40;99.90;12.80;100627;;;;596532;236;24034;-80
2022/07/09 02:57:54;;;;;;;5.67;2.87;;;13.40;99.90;12.80;100628;;;;596402;239;24026;-81
2022/07/09 03:00:22;;;;;;;3.60;2.50;;;13.40;99.90;12.80;100629;;;;597864;239;24067;-80
2022/07/09 03:02:50;;;;;;;3.43;2.70;;;13.40;99.90;12.80;100623;;;;588465;241;24033;-80
2022/07/09 03:05:18;;;;;;;8.47;2.67;;;13.40;99.90;12.90;100632;;;;597586;239;24026;-80
2022/07/09 03:07:46;;;;;;;4.93;2.70;;;13.50;99.90;13.00;100627;;;;588567;241;24049;-79
2022/07/09 03:10:13;;;;;;;3.57;3.27;;;13.60;99.90;13.00;100629;;;;597551;239;24055;-78
2022/07/09 03:12:41;;;;;;;6.67;2.67;;;13.60;99.90;13.10;100622;;;;597531;239;24127;-79
2022/07/09 03:15:12;;;;;;;6.13;3.13;;;13.80;99.90;13.20;100629;;;;597512;239;24044;-79
2022/07/09 03:17:42;;;;;;;5.23;2.83;;;13.90;99.90;13.40;100637;;;;587952;241;24060;-79
2022/07/09 03:20:07;;;;;;;2.97;2.77;;;13.90;99.90;13.50;100633;;;;587588;241;24018;-80
2022/07/09 03:22:38;;;;;;;3.53;3.03;;;14.10;99.90;13.70;100626;;;;587967;241;24081;-80
2022/07/09 03:25:03;;;;;;;4.80;3.10;;;14.20;99.90;14.20;100621;;;;587582;241;24029;-80
2022/07/09 03:27:31;;;;;;;3.20;2.93;;;14.60;99.90;15.00;100628;;;;587958;241;24048;-80
2022/07/09 03:30:02;;;;;;;6.70;3.00;;;15.30;99.90;15.60;100618;;;;597230;240;24021;-80
2022/07/09 03:32:29;;;;;;;9.63;2.43;;;16.00;99.90;16.10;100624;;;;587548;241;24044;-80
2022/07/09 03:34:54;;;;;;;3.40;2.30;;;16.60;99.90;16.30;100627;;;;587718;241;24057;-80
2022/07/09 03:37:23;;;;;;;2.33;2.00;;;17.00;99.90;16.30;100627;;;;587734;241;24017;-80
2022/07/09 03:39:52;;;;;;;1.73;1.63;;;17.10;99.90;16.30;100634;;;;587199;241;24096;-81
2022/07/09 03:42:20;;;;;;;2.30;1.60;;;17.00;99.90;16.40;100633;;;;596905;239;24120;-81
2022/07/09 03:44:48;;;;;;;1.43;1.20;;;17.10;99.90;16.30;100628;;;;596488;239;24034;-80
2022/07/09 03:47:16;;;;;;;2.90;1.80;;;17.10;99.90;16.20;100639;;;;596565;239;24036;-80
2022/07/09 03:49:44;;;;;;;1.50;1.40;;;17.00;99.90;16.20;100630;;;;596489;239;24080;-80
2022/07/09 03:52:12;;;;;;;2.60;1.90;;;16.90;99.90;16.20;100628;;;;587437;241;24076;-81
2022/07/09 03:54:40;;;;;;;1.43;1.27;;;16.80;99.90;16.60;100628;;;;596366;237;24033;-81
2022/07/09 03:57:08;;;;;;;3.57;1.50;;;17.20;99.90;17.00;100627;;;;596468;240;24021;-80
2022/07/09 03:59:36;;;;;;;1.20;1.10;;;17.50;99.90;17.40;100623;;;;596610;239;24044;-81
2022/07/09 04:02:07;;;;;;;2.47;1.60;;;17.90;99.90;18.00;100614;;;;587202;241;24028;-80
2022/07/09 04:04:32;;;;;;;4.00;1.50;;;18.90;99.90;18.50;100609;;;;587083;241;24060;-80
2022/07/09 04:07:01;;;;;;;1.60;1.00;;;19.70;99.90;19.20;100611;;;;596537;239;24030;-81
2022/07/09 04:09:29;;;;;;;1.43;1.33;;;19.60;99.90;20.10;100607;;;;596911;239;24017;-80
2022/07/09 04:11:57;;;;;;;1.43;1.33;;;20.60;99.90;20.90;100606;;;;598212;238;24094;-80
2022/07/09 04:14:25;;;;;;;2.47;1.27;;;21.40;99.90;21.90;100609;;;;598071;239;24036;-80
2022/07/09 04:16:53;;;;;;;3.10;1.10;;;22.40;99.90;22.10;100617;;;;597848;239;23042;-81
2022/07/09 04:19:21;;;;;;;2.80;1.20;;;22.80;99.90;21.90;100613;;;;597742;239;24005;-81
2022/07/09 04:21:49;;;;;;;1.30;1.00;;;22.70;99.90;21.30;100613;;;;597490;239;24024;-81
2022/07/09 04:24:16;;;;;;;1.00;0.93;;;22.20;99.90;20.70;100600;;;;597509;239;23042;-81
2022/07/09 04:26:45;;;;;;;3.17;1.17;;;21.20;99.90;20.40;100594;;;;597530;239;23063;-80
2022/07/09 04:29:14;;;;;;;1.20;1.17;;;21.80;99.90;21.30;100606;;;;597372;239;24049;-79
2022/07/09 04:31:42;;;;;;;1.07;0.97;;;21.80;99.90;22.60;100602;;;;587964;241;24080;-82
2022/07/09 04:34:10;;;;;;;2.70;1.10;;;23.00;99.90;23.10;100596;;;;588016;241;24014;-80
2022/07/09 04:36:38;;;;;;;2.57;1.20;;;23.60;99.90;23.80;100592;;;;597186;239;24017;-80
2022/07/09 04:39:05;;;;;;;1.67;1.27;;;24.30;99.90;24.80;100604;;;;597236;239;24082;-79
2022/07/09 04:41:34;;;;;;;5.77;1.43;;;25.40;99.90;25.80;100599;;;;597222;239;24065;-79
2022/07/09 04:44:01;;;;;;;2.20;1.17;;;26.40;99.90;26.50;100594;;;;597082;240;23045;-79
2022/07/09 04:46:32;;;;;;;2.03;1.20;;;27.90;99.50;27.00;100595;;;;596811;240;23066;-79
2022/07/09 04:48:58;;;;;;;4.57;1.30;;;27.80;99.40;27.60;100593;;;;596363;239;23044;-79
2022/07/09 04:51:26;;;;;;;1.67;1.07;;;28.50;96.20;28.00;100602;;;;586914;241;24065;-79
2022/07/09 04:53:54;;;;;;;3.93;1.20;;;29.00;93.50;28.10;100602;;;;596520;239;23028;-81
2022/07/09 04:56:22;;;;;;;3.93;1.60;;;29.10;91.70;28.00;100599;;;;596711;236;23043;-81
2022/07/09 04:58:52;;;;;;;4.20;1.10;;;29.10;90.30;27.80;100608;;;;587348;241;23046;-80
2022/07/09 05:01:20;;;;;;;2.83;1.20;;;28.90;89.50;28.60;100607;;;;596475;239;23095;-80
2022/07/09 05:03:48;;;;;;;1.57;1.10;;;29.30;87.90;29.20;100613;;;;587413;241;23034;-81
2022/07/09 05:06:16;;;;;;;6.63;1.30;;;30.10;84.70;29.10;100609;;;;587182;241;23095;-81
2022/07/09 05:08:47;;;;;;;2.73;1.03;;;30.10;82.30;29.40;100603;;;;587740;241;24070;-82
2022/07/09 05:11:12;;;;;;;2.80;1.63;;;30.50;78.60;29.50;100607;;;;596789;240;23111;-81
2022/07/09 05:13:40;;;;;;;1.90;1.17;;;30.40;78.50;29.90;100617;;;;587709;241;24050;-81
2022/07/09 05:16:08;;;;;;;4.77;1.30;;;30.70;77.60;29.70;100613;;;;596980;239;23042;-80
2022/07/09 05:18:36;;;;;;;7.70;1.60;;;30.70;75.40;29.10;100614;;;;587709;241;23061;-80
2022/07/09 05:21:07;;;;;;;3.23;1.13;;;30.10;75.60;29.30;100616;;;;587719;241;23051;-81
2022/07/09 05:23:32;;;;;;;3.45;1.05;;;30.10;76.00;29.50;100622;;;;588797;241;23043;-79
2022/07/09 05:26:00;;;;;;;6.47;1.70;;;30.30;75.30;29.20;100624;;;;598205;239;24005;-78
2022/07/09 05:28:28;;;;;;;2.80;1.17;;;30.00;74.80;28.50;100613;;;;588566;241;23064;-79
2022/07/09 05:30:56;;;;;;;3.20;1.37;;;29.50;75.50;27.60;100618;;;;597797;239;23067;-79
2022/07/09 05:33:24;;;;;;;2.43;1.30;;;28.60;76.70;26.80;100614;;;;588242;241;24039;-79
2022/07/09 05:35:52;;;;;;;3.30;1.70;;;27.70;79.60;26.30;100613;;;;597517;239;23029;-79
2022/07/09 05:38:21;;;;;;;1.77;1.10;;;27.00;81.90;25.80;100622;;;;597467;239;23026;-78
2022/07/09 05:40:48;;;;;;;4.30;1.77;;;25.90;85.40;25.20;100617;;;;597363;239;23110;-79
2022/07/09 05:43:16;;;;;;;2.83;1.50;;;25.90;85.50;24.80;100616;;;;597193;239;24118;-79
2022/07/09 05:45:44;;;;;;;2.93;1.80;;;25.40;86.90;24.20;100612;;;;597214;239;23041;-79
2022/07/09 05:48:12;;;;;;;6.83;1.47;;;24.90;87.80;23.70;100614;;;;596950;239;24041;-81
2022/07/09 05:50:40;;;;;;;3.77;2.00;;;24.30;89.20;23.60;100614;;;;596982;239;24022;-80
2022/07/09 05:53:08;;;;;;;5.10;1.63;;;24.10;90.70;24.10;100607;;;;596881;240;24096;-79
2022/07/09 05:55:36;;;;;;;7.47;2.00;;;24.40;90.90;24.60;100602;;;;596932;236;24038;-80
2022/07/09 05:58:04;;;;;;;4.90;1.77;;;24.80;90.50;25.60;100599;;;;596804;239;24109;-79
2022/07/09 06:00:31;;;;;;;5.37;1.97;;;25.80;87.90;26.90;100606;;;;596456;239;24010;-80
2022/07/09 06:03:00;;;;;;;5.83;1.70;;;28.50;79.30;28.40;100595;;;;587350;241;23133;-80
2022/07/09 06:05:29;;;;;;;5.07;2.07;;;29.70;74.80;29.50;100592;;;;596485;239;23032;-80
2022/07/09 06:07:57;;;;;;;6.05;1.90;;;29.60;74.60;30.00;100588;;;;596525;240;23083;-81
2022/07/09 06:10:25;;;;;;;5.05;1.67;;;30.40;71.40;29.70;100582;;;;587767;241;23030;-80
2022/07/09 06:12:53;;;;;;;5.90;1.90;;;30.20;70.20;29.40;100586;;;;596964;239;24055;-78
2022/07/09 06:15:21;;;;;;;4.07;1.92;;;30.00;68.90;28.60;100578;;;;596984;239;23063;-83
2022/07/09 06:17:50;;;;;;;5.40;1.65;;;29.40;69.00;27.50;100589;;;;596995;239;23046;-81
2022/07/09 06:20:16;;;;;;;4.50;1.95;;;28.50;71.00;26.70;100586;;;;591678;240;34901;-82
2022/07/09 06:22:44;;;;;;;4.00;1.60;;;27.60;73.20;26.60;100580;;;;587748;241;23065;-83
2022/07/09 06:25:12;;;;;;;6.07;1.93;;;27.30;74.30;26.30;100586;;;;596999;239;24050;-83
2022/07/09 06:27:43;;;;;;;4.23;1.93;;;26.90;75.00;26.30;100575;;;;587768;241;23030;-83
2022/07/09 06:30:09;;;;;;;4.03;2.00;;;27.40;76.40;27.10;100592;;;;581350;241;23070;-82
2022/07/09 06:32:37;;;;;;;3.20;2.20;;;27.40;76.40;27.70;100596;;;;596920;239;23078;-82
2022/07/09 06:35:07;;;;;;;3.93;2.17;;;28.00;73.50;27.30;100599;;;;598208;238;24069;-82
2022/07/09 06:37:33;;;;;;;3.97;1.90;;;27.90;73.30;26.50;100586;;;;588884;241;24089;-79
2022/07/09 06:40:00;;;;;;;4.57;2.00;;;27.20;74.30;25.80;100590;;;;597838;239;23027;-80
2022/07/09 06:42:28;;;;;;;3.63;2.00;;;26.50;75.50;25.20;100592;;;;597787;239;23086;-82
2022/07/09 06:44:56;;;;;;;3.67;2.03;;;25.90;77.20;24.90;100583;;;;597588;239;24029;-79
2022/07/09 06:47:24;;;;;;;3.90;2.00;;;25.40;78.50;25.70;100583;;;;597534;239;23050;-81
2022/07/09 06:49:52;;;;;;;3.43;1.77;;;25.90;79.40;26.60;100583;;;;597236;239;23053;-82
2022/07/09 06:52:20;;;;;;;3.47;2.03;;;26.80;77.50;26.40;100576;;;;596943;239;23046;-81
2022/07/09 06:54:48;;;;;;;3.63;1.87;;;26.80;75.70;25.60;100578;;;;596954;237;24042;-81
2022/07/09 06:57:16;;;;;;;6.43;1.93;;;26.30;76.90;24.80;100574;;;;587949;241;23023;-80
2022/07/09 06:59:48;;;;;;;6.23;2.30;;;25.50;79.20;24.10;100581;;;;597154;240;24091;-81
2022/07/09 07:02:16;;;;;;;2.80;2.03;;;24.90;80.90;23.80;100577;;;;597032;240;24069;-80
2022/07/09 07:04:40;;;;;;;3.43;2.57;;;24.20;83.50;23.70;100578;;;;587477;241;24003;-79
2022/07/09 07:07:08;;;;;;;5.47;2.13;;;24.20;83.50;23.90;100573;;;;597216;239;24121;-79
2022/07/09 07:09:40;;;;;;;3.77;2.00;;;24.30;83.70;24.70;100573;;;;597279;238;24084;-81
2022/07/09 07:12:04;;;;;;;2.43;1.80;;;24.90;82.50;24.90;100574;;;;587073;241;23070;-79
2022/07/09 07:14:32;;;;;;;5.17;2.17;;;25.20;80.80;25.80;100571;;;;587421;241;24031;-79
2022/07/09 07:17:00;;;;;;;4.53;1.83;;;25.90;79.70;26.80;100575;;;;587312;241;23077;-81
2022/07/09 07:19:28;;;;;;;3.27;1.50;;;26.90;77.20;27.40;100573;;;;596590;239;24007;-82
2022/07/09 07:21:56;;;;;;;3.50;1.43;;;27.70;74.50;27.50;100568;;;;596375;240;23036;-83
2022/07/09 07:24:24;;;;;;;2.27;1.67;;;27.90;72.50;27.00;100582;;;;596705;239;23020;-83
2022/07/09 07:26:52;;;;;;;5.47;2.20;;;27.60;72.20;26.40;100583;;;;596594;239;23038;-80
2022/07/09 07:29:20;;;;;;;6.13;1.90;;;27.10;72.50;26.20;100583;;;;596468;239;23064;-81
2022/07/09 07:31:47;;;;;;;10.23;1.87;;;26.80;73.30;26.00;100576;;;;587400;241;23058;-81
2022/07/09 07:34:15;;;;;;;4.77;1.73;;;26.60;73.20;25.30;100577;;;;596564;239;24053;-82
2022/07/09 07:36:44;;;;;;;5.43;1.83;;;25.30;75.00;24.50;100577;;;;587473;241;24087;-80
2022/07/09 07:39:12;;;;;;;3.53;1.93;;;25.20;74.90;23.80;100572;;;;596593;239;23027;-80
2022/07/09 07:41:40;;;;;;;5.50;2.23;;;24.60;76.90;23.60;100581;;;;596484;239;24018;-80
2022/07/09 07:44:08;;;;;;;6.00;2.10;;;24.20;78.50;24.00;100568;;;;596634;239;24008;-79
2022/07/09 07:46:36;;;;;;;1.77;1.63;;;24.70;78.40;24.40;100570;;;;588495;241;24060;-80
2022/07/09 07:49:04;;;;;;;5.03;1.70;;;24.70;78.40;24.70;100567;;;;597914;239;24029;-81
2022/07/09 07:51:32;;;;;;;2.23;1.80;;;25.00;77.70;25.60;100559;;;;597387;240;24025;-81
2022/07/09 07:54:00;;;;;;;4.57;1.73;;;25.70;77.50;26.90;100556;;;;597615;239;24060;-80
2022/07/09 07:56:28;;;;;;;5.57;2.13;;;27.00;74.30;28.00;100556;;;;588068;241;23069;-79
2022/07/09 07:58:56;;;;;;;5.07;1.60;;;28.10;71.40;28.60;100552;;;;597124;239;24090;-80
2022/07/09 08:01:25;;;;;;;3.63;2.03;;;29.70;65.20;29.40;100557;;;;597284;239;23136;-80
2022/07/09 08:03:53;;;;;;;3.40;1.73;;;29.60;65.10;29.30;100558;;;;596935;239;24038;-80
2022/07/09 08:06:22;;;;;;;3.30;1.60;;;29.80;62.90;28.60;100560;;;;597119;240;23066;-82
2022/07/09 08:08:48;;;;;;;5.62;2.00;;;29.50;63.10;27.80;100570;;;;591705;239;45771;-79
2022/07/09 08:11:16;;;;;;;3.87;1.80;;;28.70;64.90;27.10;100574;;;;587594;241;23035;-79
2022/07/09 08:13:44;;;;;;;2.67;1.77;;;28.00;66.60;26.20;100568;;;;588189;241;24036;-78
2022/07/09 08:16:12;;;;;;;6.57;2.30;;;27.10;67.60;25.40;100570;;;;588255;241;23034;-79
2022/07/09 08:18:40;;;;;;;2.33;1.63;;;26.30;68.90;25.60;100561;;;;597353;240;24101;-80
2022/07/09 08:21:09;;;;;;;4.70;1.53;;;26.80;68.50;26.50;100566;;;;588073;241;24004;-79
2022/07/09 08:23:51;;;;;;;2.70;1.67;;;26.70;68.30;26.90;100562;;;;597348;239;24035;-80
2022/07/09 08:26:05;;;;;;;3.23;1.50;;;27.20;67.40;27.10;100561;;;;586842;241;23030;-80
2022/07/09 08:28:33;;;;;;;2.00;1.17;;;27.50;64.40;26.90;100566;;;;587815;241;23061;-78
2022/07/09 08:31:00;;;;;;;3.83;1.70;;;27.40;63.10;26.30;100564;;;;597089;239;24156;-80
2022/07/09 08:33:28;;;;;;;4.40;1.90;;;27.00;63.60;25.50;100562;;;;597096;239;24016;-80
2022/07/09 08:35:56;;;;;;;5.67;2.13;;;26.30;66.20;24.90;100552;;;;597033;240;23069;-81
2022/07/09 08:38:25;;;;;;;6.83;1.80;;;25.60;69.60;24.40;100568;;;;597091;239;24021;-79
2022/07/09 08:40:52;;;;;;;7.20;1.90;;;25.10;71.60;24.20;100568;;;;597110;239;24016;-79
2022/07/09 08:43:20;;;;;;;3.40;1.83;;;24.70;72.80;24.30;100565;;;;587776;241;24029;-80
2022/07/09 08:45:49;;;;;;;4.47;1.93;;;24.80;72.20;24.40;100575;;;;596978;239;23065;-80
2022/07/09 08:48:18;;;;;;;2.83;1.77;;;25.00;71.90;24.70;100565;;;;587802;241;24032;-80
2022/07/09 08:50:45;;;;;;;2.30;1.63;;;25.00;71.90;25.20;100562;;;;596878;240;24051;-79
2022/07/09 08:53:13;;;;;;;4.07;1.40;;;25.50;70.00;25.60;100558;;;;596738;239;24038;-81
2022/07/09 08:55:42;;;;;;;5.30;1.50;;;26.40;67.30;26.00;100551;;;;587361;241;24077;-80
2022/07/09 08:58:13;;;;;;;2.23;1.37;;;26.30;67.20;26.10;100559;;;;588385;241;24089;-80
2022/07/09 09:00:40;;;;;;;4.27;1.50;;;26.60;66.50;26.00;100555;;;;588691;241;24018;-82
2022/07/09 09:03:09;;;;;;;3.47;1.50;;;26.50;66.20;26.00;100552;;;;587997;241;24117;-81
2022/07/09 09:05:38;;;;;;;2.67;1.97;;;27.50;66.30;27.40;100559;;;;597624;239;24091;-80
2022/07/09 09:08:24;;;;;;;2.83;1.47;;;29.20;63.20;29.10;100571;;;;597208;239;23091;-82
2022/07/09 09:10:52;;;;;;;4.33;1.70;;;30.10;59.70;29.60;100571;;;;588228;241;24025;-82
2022/07/09 09:13:20;;;;;;;2.00;1.30;;;30.10;59.60;29.50;100570;;;;597879;239;23087;-81
2022/07/09 09:15:48;;;;;;;3.37;1.40;;;30.10;59.30;29.30;100567;;;;597983;239;23044;-80
2022/07/09 09:18:16;;;;;;;4.20;1.30;;;30.00;59.40;29.30;100575;;;;597459;240;24055;-79
2022/07/09 09:20:47;;;;;;;4.22;1.58;;;29.90;59.30;29.30;100570;;;;597745;239;23057;-82
2022/07/09 09:23:18;;;;;;;3.28;1.40;;;29.90;59.50;29.30;100576;;;;597566;239;24008;-82
2022/07/09 09:25:47;;;;;;;1.83;1.30;;;29.50;59.00;28.70;100575;;;;597436;239;25167;-81
2022/07/09 09:28:18;;;;;;;3.53;1.43;;;29.50;59.00;27.90;100571;;;;597390;239;23041;-81
2022/07/09 09:30:43;;;;;;;3.27;1.63;;;28.80;60.50;27.50;100580;;;;581777;241;23034;-79
2022/07/09 09:33:10;;;;;;;3.70;1.27;;;28.20;62.30;26.90;100590;;;;597144;240;24044;-80
2022/07/09 09:35:38;;;;;;;1.40;1.30;;;27.70;62.80;26.20;100581;;;;587629;241;23047;-80
2022/07/09 09:38:07;;;;;;;2.47;1.83;;;26.30;66.20;25.50;100578;;;;587660;241;23068;-79
2022/07/09 09:40:35;;;;;;;2.83;1.63;;;26.30;66.20;24.80;100577;;;;587778;241;24017;-81
2022/07/09 09:43:06;;;;;;;1.87;1.40;;;25.60;68.30;24.70;100570;;;;587748;241;23027;-82
2022/07/09 09:45:31;;;;;;;6.27;1.30;;;25.20;70.30;25.20;100567;;;;587496;241;24044;-81
2022/07/09 09:47:59;;;;;;;4.40;1.50;;;25.50;71.00;26.10;100563;;;;587672;241;23034;-81
2022/07/09 09:50:27;;;;;;;2.27;1.30;;;26.20;69.40;27.90;100560;;;;587469;241;23082;-80
2022/07/09 09:52:54;;;;;;;2.13;1.40;;;27.80;67.60;29.60;100567;;;;596695;240;23049;-80
2022/07/09 09:55:22;;;;;;;3.13;1.47;;;29.70;63.50;30.70;100558;;;;587059;241;24120;-81
2022/07/09 09:57:50;;;;;;;3.87;1.87;;;30.90;59.70;31.60;100557;;;;587221;241;23143;-81
2022/07/09 10:00:18;;;;;;;5.35;1.50;;;32.00;58.30;32.00;100556;;;;587073;241;23073;-82
2022/07/09 10:02:46;;;;;;;4.30;1.12;;;32.60;56.60;31.70;100554;;;;587252;241;23187;-80
2022/07/09 10:05:19;;;;;;;4.90;1.60;;;31.70;56.50;30.60;100552;;;;596143;240;23041;-80
2022/07/09 10:07:46;;;;;;;3.58;1.23;;;31.70;55.80;29.80;100540;;;;586823;241;23065;-80
2022/07/09 10:10:16;;;;;;;2.58;1.60;;;30.80;57.30;28.90;100537;;;;597506;238;23041;-81
2022/07/09 10:12:47;;;;;;;1.83;1.27;;;29.90;58.50;28.90;100543;;;;587802;241;23043;-82
2022/07/09 10:15:24;;;;;;;4.65;1.23;;;29.50;61.00;30.90;100542;;;;587939;241;23097;-83
2022/07/09 10:17:49;;;;;;;1.67;1.10;;;30.90;59.80;33.20;100540;;;;587714;241;23103;-80
2022/07/09 10:20:17;;;;;;;3.20;1.37;;;33.40;56.30;34.60;100543;;;;588080;241;23090;-82
2022/07/09 10:22:45;;;;;;;1.67;1.10;;;35.10;52.30;35.00;100546;;;;597353;239;23041;-82
2022/07/09 10:25:14;;;;;;;3.67;1.05;;;35.90;50.70;34.20;100542;;;;588085;241;23078;-81
2022/07/09 10:27:46;;;;;;;2.40;1.30;;;35.50;49.80;33.70;100541;;;;587797;241;24083;-81
2022/07/09 10:30:35;;;;;;;1.33;0.90;;;34.80;50.10;33.90;100535;;;;587865;241;23035;-82
2022/07/09 10:33:09;;;;;;;5.45;0.98;;;34.90;50.60;33.60;100533;;;;587300;241;23056;-81
2022/07/09 10:35:44;;;;;;;1.08;0.90;;;34.30;51.60;33.30;100540;;;;587886;241;23075;-80
2022/07/09 10:38:11;;;;;;;1.08;0.88;;;34.20;51.50;33.30;100542;;;;587893;241;23043;-80
2022/07/09 10:40:42;;;;;;;1.37;0.93;;;34.10;51.50;33.00;100539;;;;596984;239;24064;-81
2022/07/09 10:43:13;;;;;;;2.00;0.93;;;33.90;50.70;32.70;100533;;;;587032;241;23071;-80
2022/07/09 10:45:46;;;;;;;2.58;1.73;;;33.50;51.20;32.20;100537;;;;587228;241;23082;-82
2022/07/09 10:48:17;;;;;;;4.65;0.95;;;33.00;52.30;32.10;100532;;;;596805;239;23076;-80
2022/07/09 10:50:42;;;;;;;1.73;1.17;;;32.70;53.00;31.80;100522;;;;587219;241;23050;-81
2022/07/09 10:53:13;;;;;;;1.17;1.08;;;32.30;53.50;31.30;100531;;;;587595;241;23038;-80
2022/07/09 10:55:38;;;;;;;1.27;1.12;;;31.80;54.20;30.40;100520;;;;587186;241;23071;-83
2022/07/09 10:58:07;;;;;;;1.60;1.20;;;31.00;55.50;29.50;100525;;;;595962;241;23057;-81
2022/07/09 11:00:34;;;;;;;1.65;0.80;;;30.20;56.50;28.90;100530;;;;586585;241;23153;-83
2022/07/09 11:03:04;;;;;;;0.73;0.73;;;29.50;57.70;28.40;100520;;;;596457;239;24120;-82
2022/07/09 11:05:32;;;;;;;2.47;1.10;;;29.00;58.00;28.40;100520;;;;587154;241;23141;-80
2022/07/09 11:08:03;;;;;;;2.30;1.57;;;28.80;59.60;28.40;100519;;;;587321;241;24088;-83
2022/07/09 11:10:31;;;;;;;2.10;0.80;;;28.70;59.70;28.20;100518;;;;586954;241;23042;-81
2022/07/09 11:12:59;;;;;;;0.83;0.80;;;28.50;59.80;27.90;100520;;;;586979;241;23046;-83
2022/07/09 11:15:30;;;;;;;1.37;0.80;;;28.30;60.00;27.50;100519;;;;596819;240;24095;-81